createdAt,value
2019-03-30T00:00:55.931Z,1023.06
2019-03-30T00:01:55.926Z,1023.01
2019-03-30T00:02:55.917Z,1023.01
2019-03-30T00:03:55.912Z,1023.04
2019-03-30T00:04:55.958Z,1023.04
2019-03-30T00:05:55.890Z,1023.03
2019-03-30T00:06:55.867Z,1023.00
2019-03-30T00:07:55.853Z,1022.99
2019-03-30T00:08:55.879Z,1022.95
2019-03-30T00:09:55.857Z,1022.93
2019-03-30T00:10:55.826Z,1023.01
2019-03-30T00:11:57.830Z,1022.95
2019-03-30T00:12:55.839Z,1022.99
2019-03-30T00:13:55.789Z,1022.93
2019-03-30T00:14:55.799Z,1022.92
2019-03-30T00:15:55.771Z,1022.93
2019-03-30T00:16:55.759Z,1022.92
2019-03-30T00:17:55.805Z,1022.90
2019-03-30T00:18:55.745Z,1022.94
2019-03-30T00:19:55.773Z,1022.92
2019-03-30T00:20:55.719Z,1022.86
2019-03-30T00:21:55.707Z,1022.86
2019-03-30T00:22:55.709Z,1022.85
2019-03-30T00:23:55.685Z,1022.81
2019-03-30T00:24:55.711Z,1022.86
2019-03-30T00:25:55.677Z,1022.80
2019-03-30T00:26:55.658Z,1022.82
2019-03-30T00:27:55.649Z,1022.81
2019-03-30T00:28:55.636Z,1022.82
2019-03-30T00:29:55.616Z,1022.77
2019-03-30T00:30:55.634Z,1022.85
2019-03-30T00:31:55.597Z,1022.87
2019-03-30T00:32:55.595Z,1022.83
2019-03-30T00:33:55.615Z,1022.83
2019-03-30T00:34:55.583Z,1022.80
2019-03-30T00:35:55.584Z,1022.73
2019-03-30T00:36:55.553Z,1022.79
2019-03-30T00:37:55.550Z,1022.83
2019-03-30T00:38:55.526Z,1022.74
2019-03-30T00:39:55.515Z,1022.75
2019-03-30T00:40:55.519Z,1022.76
2019-03-30T00:41:55.490Z,1022.74
2019-03-30T00:42:55.480Z,1022.72
2019-03-30T00:43:55.470Z,1022.63
2019-03-30T00:44:55.488Z,1022.71
2019-03-30T00:45:55.466Z,1022.64
2019-03-30T00:46:55.443Z,1022.67
2019-03-30T00:47:55.434Z,1022.66
2019-03-30T00:48:55.417Z,1022.65
2019-03-30T00:49:55.406Z,1022.61
2019-03-30T00:50:55.421Z,1022.62
2019-03-30T00:51:55.392Z,1022.62
2019-03-30T00:52:55.461Z,1022.70
2019-03-30T00:53:55.364Z,1022.63
2019-03-30T00:54:55.355Z,1022.65
2019-03-30T00:55:55.374Z,1022.60
2019-03-30T00:56:55.339Z,1022.64
2019-03-30T00:57:55.324Z,1022.63
2019-03-30T00:58:55.338Z,1022.66
2019-03-30T00:59:55.308Z,1022.62
2019-03-30T01:00:55.292Z,1022.58
2019-03-30T01:01:55.295Z,1022.61
2019-03-30T01:02:55.271Z,1022.57
2019-03-30T01:03:55.257Z,1022.58
2019-03-30T01:04:55.243Z,1022.62
2019-03-30T01:05:58.208Z,1022.62
2019-03-30T01:06:55.244Z,1022.63
2019-03-30T01:07:55.229Z,1022.61
2019-03-30T01:08:55.209Z,1022.59
2019-03-30T01:09:55.195Z,1022.50
2019-03-30T01:10:55.177Z,1022.55
2019-03-30T01:11:55.219Z,1022.58
2019-03-30T01:12:55.163Z,1022.55
2019-03-30T01:13:55.161Z,1022.52
2019-03-30T01:14:55.142Z,1022.50
2019-03-30T01:15:55.129Z,1022.51
2019-03-30T01:16:55.137Z,1022.50
2019-03-30T01:17:55.175Z,1022.46
2019-03-30T01:18:55.096Z,1022.48
2019-03-30T01:20:02.703Z,1022.48
2019-03-30T01:20:56.073Z,1022.49
2019-03-30T01:21:56.338Z,1022.51
2019-03-30T01:22:55.054Z,1022.48
2019-03-30T01:23:55.061Z,1022.50
2019-03-30T01:24:55.039Z,1022.48
2019-03-30T01:25:55.030Z,1022.44
2019-03-30T01:26:55.020Z,1022.51
2019-03-30T01:27:55.008Z,1022.56
2019-03-30T01:28:54.990Z,1022.50
2019-03-30T01:29:55.020Z,1022.57
2019-03-30T01:30:54.979Z,1022.53
2019-03-30T01:31:54.977Z,1022.57
2019-03-30T01:32:54.954Z,1022.52
2019-03-30T01:33:54.984Z,1022.52
2019-03-30T01:34:54.926Z,1022.60
2019-03-30T01:35:54.921Z,1022.55
2019-03-30T01:36:54.922Z,1022.57
2019-03-30T01:37:54.901Z,1022.52
2019-03-30T01:38:54.928Z,1022.61
2019-03-30T01:39:54.886Z,1022.56
2019-03-30T01:40:54.865Z,1022.50
2019-03-30T01:41:54.867Z,1022.58
2019-03-30T01:42:54.853Z,1022.56
2019-03-30T01:43:54.825Z,1022.50
2019-03-30T01:44:54.825Z,1022.54
2019-03-30T01:45:54.854Z,1022.50
2019-03-30T01:46:54.832Z,1022.48
2019-03-30T01:47:54.785Z,1022.49
2019-03-30T01:48:54.773Z,1022.55
2019-03-30T01:49:54.811Z,1022.49
2019-03-30T01:50:54.761Z,1022.55
2019-03-30T01:51:54.747Z,1022.53
2019-03-30T01:52:54.753Z,1022.54
2019-03-30T01:53:54.737Z,1022.45
2019-03-30T01:54:54.715Z,1022.52
2019-03-30T01:55:54.695Z,1022.47
2019-03-30T01:56:54.690Z,1022.50
2019-03-30T01:57:54.761Z,1022.42
2019-03-30T01:58:54.672Z,1022.47
2019-03-30T01:59:54.657Z,1022.48
2019-03-30T02:00:54.691Z,1022.49
2019-03-30T02:01:54.637Z,1022.47
2019-03-30T02:02:54.641Z,1022.44
2019-03-30T02:03:54.617Z,1022.42
2019-03-30T02:04:54.607Z,1022.45
2019-03-30T02:05:54.600Z,1022.49
2019-03-30T02:06:54.607Z,1022.48
2019-03-30T02:07:54.589Z,1022.40
2019-03-30T02:08:54.559Z,1022.50
2019-03-30T02:09:54.545Z,1022.46
2019-03-30T02:10:54.543Z,1022.42
2019-03-30T02:11:54.533Z,1022.42
2019-03-30T02:12:54.532Z,1022.45
2019-03-30T02:13:54.507Z,1022.35
2019-03-30T02:14:54.499Z,1022.36
2019-03-30T02:15:54.485Z,1022.30
2019-03-30T02:16:54.481Z,1022.31
2019-03-30T02:17:54.480Z,1022.39
2019-03-30T02:18:54.452Z,1022.34
2019-03-30T02:19:54.444Z,1022.26
2019-03-30T02:20:54.433Z,1022.32
2019-03-30T02:21:54.423Z,1022.26
2019-03-30T02:22:54.458Z,1022.29
2019-03-30T02:23:54.405Z,1022.25
2019-03-30T02:24:54.387Z,1022.29
2019-03-30T02:25:54.383Z,1022.30
2019-03-30T02:26:54.383Z,1022.28
2019-03-30T02:27:54.369Z,1022.26
2019-03-30T02:28:54.379Z,1022.23
2019-03-30T02:29:54.342Z,1022.24
2019-03-30T02:30:54.329Z,1022.18
2019-03-30T02:31:54.350Z,1022.26
2019-03-30T02:32:54.325Z,1022.23
2019-03-30T02:33:54.305Z,1022.23
2019-03-30T02:34:54.291Z,1022.19
2019-03-30T02:35:54.267Z,1022.20
2019-03-30T02:36:54.266Z,1022.23
2019-03-30T02:37:54.277Z,1022.19
2019-03-30T02:38:54.251Z,1022.21
2019-03-30T02:39:54.232Z,1022.25
2019-03-30T02:40:54.255Z,1022.22
2019-03-30T02:41:54.211Z,1022.20
2019-03-30T02:42:54.217Z,1022.17
2019-03-30T02:43:54.188Z,1022.24
2019-03-30T02:44:54.176Z,1022.21
2019-03-30T02:45:54.205Z,1022.19
2019-03-30T02:46:54.155Z,1022.23
2019-03-30T02:47:54.154Z,1022.24
2019-03-30T02:48:54.137Z,1022.22
2019-03-30T02:49:54.134Z,1022.14
2019-03-30T02:50:54.114Z,1022.19
2019-03-30T02:51:54.111Z,1022.17
2019-03-30T02:52:54.180Z,1022.15
2019-03-30T02:53:54.081Z,1022.13
2019-03-30T02:54:54.071Z,1022.20
2019-03-30T02:55:54.063Z,1022.23
2019-03-30T02:56:54.050Z,1022.11
2019-03-30T02:57:54.062Z,1022.17
2019-03-30T02:58:54.041Z,1022.20
2019-03-30T02:59:54.122Z,1022.16
2019-03-30T03:00:54.008Z,1022.09
2019-03-30T03:01:53.991Z,1022.13
2019-03-30T03:02:54.008Z,1022.15
2019-03-30T03:03:53.969Z,1022.13
2019-03-30T03:04:53.959Z,1022.11
2019-03-30T03:05:53.949Z,1022.07
2019-03-30T03:06:53.945Z,1022.12
2019-03-30T03:07:54.006Z,1022.13
2019-03-30T03:08:53.929Z,1022.08
2019-03-30T03:09:53.923Z,1022.15
2019-03-30T03:10:53.897Z,1022.09
2019-03-30T03:11:53.897Z,1022.06
2019-03-30T03:12:53.884Z,1022.05
2019-03-30T03:13:53.930Z,1022.05
2019-03-30T03:14:53.861Z,1021.99
2019-03-30T03:15:53.844Z,1022.10
2019-03-30T03:16:53.834Z,1022.04
2019-03-30T03:17:53.845Z,1022.05
2019-03-30T03:18:53.833Z,1021.96
2019-03-30T03:19:53.802Z,1022.01
2019-03-30T03:21:07.497Z,1021.98
2019-03-30T03:21:54.784Z,1021.93
2019-03-30T03:22:53.771Z,1021.96
2019-03-30T03:23:53.775Z,1021.93
2019-03-30T03:24:53.750Z,1021.86
2019-03-30T03:25:53.738Z,1021.82
2019-03-30T03:26:53.723Z,1021.79
2019-03-30T03:27:53.745Z,1021.81
2019-03-30T03:28:53.720Z,1021.83
2019-03-30T03:29:53.701Z,1021.84
2019-03-30T03:30:53.892Z,1021.84
2019-03-30T03:31:53.679Z,1021.83
2019-03-30T03:32:53.677Z,1021.82
2019-03-30T03:33:53.712Z,1021.85
2019-03-30T03:34:53.644Z,1021.78
2019-03-30T03:35:53.650Z,1021.84
2019-03-30T03:36:53.623Z,1021.81
2019-03-30T03:37:53.607Z,1021.78
2019-03-30T03:38:53.609Z,1021.77
2019-03-30T03:39:53.599Z,1021.79
2019-03-30T03:40:53.588Z,1021.78
2019-03-30T03:41:53.600Z,1021.79
2019-03-30T03:42:53.562Z,1021.77
2019-03-30T03:43:53.563Z,1021.76
2019-03-30T03:44:53.544Z,1021.70
2019-03-30T03:45:53.522Z,1021.74
2019-03-30T03:46:53.516Z,1021.79
2019-03-30T03:47:53.502Z,1021.75
2019-03-30T03:48:53.557Z,1021.71
2019-03-30T03:49:53.478Z,1021.68
2019-03-30T03:50:53.473Z,1021.77
2019-03-30T03:51:53.463Z,1021.73
2019-03-30T03:52:53.446Z,1021.73
2019-03-30T03:53:53.458Z,1021.76
2019-03-30T03:54:53.430Z,1021.71
2019-03-30T03:55:53.418Z,1021.67
2019-03-30T03:56:53.463Z,1021.70
2019-03-30T03:57:53.401Z,1021.69
2019-03-30T03:58:53.402Z,1021.68
2019-03-30T03:59:53.375Z,1021.72
2019-03-30T04:00:53.367Z,1021.71
2019-03-30T04:01:53.355Z,1021.73
2019-03-30T04:02:53.352Z,1021.71
2019-03-30T04:03:53.403Z,1021.70
2019-03-30T04:04:53.363Z,1021.63
2019-03-30T04:05:53.312Z,1021.64
2019-03-30T04:06:53.310Z,1021.65
2019-03-30T04:07:53.285Z,1021.69
2019-03-30T04:08:53.294Z,1021.61
2019-03-30T04:09:53.286Z,1021.66
2019-03-30T04:10:53.259Z,1021.65
2019-03-30T04:11:53.252Z,1021.61
2019-03-30T04:12:53.244Z,1021.67
2019-03-30T04:13:53.261Z,1021.66
2019-03-30T04:14:53.217Z,1021.64
2019-03-30T04:15:53.230Z,1021.63
2019-03-30T04:16:53.194Z,1021.61
2019-03-30T04:17:53.192Z,1021.57
2019-03-30T04:18:53.181Z,1021.62
2019-03-30T04:19:53.168Z,1021.62
2019-03-30T04:20:53.153Z,1021.56
2019-03-30T04:21:53.170Z,1021.53
2019-03-30T04:22:53.131Z,1021.56
2019-03-30T04:23:54.517Z,1021.52
2019-03-30T04:24:53.134Z,1021.50
2019-03-30T04:25:53.096Z,1021.53
2019-03-30T04:26:53.083Z,1021.51
2019-03-30T04:27:53.075Z,1021.47
2019-03-30T04:28:53.083Z,1021.49
2019-03-30T04:29:53.122Z,1021.50
2019-03-30T04:30:53.051Z,1021.51
2019-03-30T04:31:53.032Z,1021.52
2019-03-30T04:32:53.027Z,1021.53
2019-03-30T04:33:53.044Z,1021.55
2019-03-30T04:34:52.997Z,1021.51
2019-03-30T04:35:52.990Z,1021.56
2019-03-30T04:36:53.002Z,1021.56
2019-03-30T04:37:52.980Z,1021.50
2019-03-30T04:38:52.956Z,1021.54
2019-03-30T04:39:52.963Z,1021.53
2019-03-30T04:40:52.937Z,1021.51
2019-03-30T04:41:52.928Z,1021.53
2019-03-30T04:42:52.914Z,1021.50
2019-03-30T04:43:52.912Z,1021.56
2019-03-30T04:44:52.906Z,1021.48
2019-03-30T04:45:52.880Z,1021.45
2019-03-30T04:46:52.876Z,1021.50
2019-03-30T04:47:52.864Z,1021.55
2019-03-30T04:48:52.856Z,1021.49
2019-03-30T04:49:52.916Z,1021.53
2019-03-30T04:50:52.832Z,1021.46
2019-03-30T04:51:57.854Z,1021.49
2019-03-30T04:52:53.865Z,1021.48
2019-03-30T04:53:52.800Z,1021.44
2019-03-30T04:54:52.811Z,1021.48
2019-03-30T04:55:52.779Z,1021.40
2019-03-30T04:56:52.764Z,1021.40
2019-03-30T04:57:52.756Z,1021.39
2019-03-30T04:58:52.743Z,1021.37
2019-03-30T04:59:52.785Z,1021.39
2019-03-30T05:00:52.726Z,1021.41
2019-03-30T05:01:52.798Z,1021.44
2019-03-30T05:02:52.700Z,1021.44
2019-03-30T05:03:52.692Z,1021.40
2019-03-30T05:04:52.703Z,1021.41
2019-03-30T05:05:52.719Z,1021.39
2019-03-30T05:06:52.659Z,1021.33
2019-03-30T05:07:52.641Z,1021.35
2019-03-30T05:08:52.647Z,1021.34
2019-03-30T05:09:52.644Z,1021.34
2019-03-30T05:10:52.619Z,1021.32
2019-03-30T05:11:52.640Z,1021.33
2019-03-30T05:12:52.595Z,1021.30
2019-03-30T05:13:52.587Z,1021.33
2019-03-30T05:14:52.587Z,1021.35
2019-03-30T05:15:52.569Z,1021.31
2019-03-30T05:16:52.553Z,1021.25
2019-03-30T05:17:52.549Z,1021.30
2019-03-30T05:18:52.527Z,1021.37
2019-03-30T05:19:52.531Z,1021.28
2019-03-30T05:20:52.553Z,1021.25
2019-03-30T05:21:52.495Z,1021.32
2019-03-30T05:22:52.485Z,1021.28
2019-03-30T05:23:52.483Z,1021.31
2019-03-30T05:24:52.461Z,1021.32
2019-03-30T05:25:52.475Z,1021.28
2019-03-30T05:26:52.445Z,1021.28
2019-03-30T05:27:52.450Z,1021.27
2019-03-30T05:28:52.422Z,1021.29
2019-03-30T05:29:52.410Z,1021.25
2019-03-30T05:30:52.425Z,1021.34
2019-03-30T05:31:52.393Z,1021.36
2019-03-30T05:33:05.014Z,1021.31
2019-03-30T05:33:53.369Z,1021.36
2019-03-30T05:34:52.363Z,1021.25
2019-03-30T05:35:52.364Z,1021.24
2019-03-30T05:36:52.336Z,1021.30
2019-03-30T05:37:52.329Z,1021.38
2019-03-30T05:38:52.317Z,1021.31
2019-03-30T05:39:52.339Z,1021.35
2019-03-30T05:40:52.310Z,1021.31
2019-03-30T05:41:52.329Z,1021.36
2019-03-30T05:42:52.302Z,1021.38
2019-03-30T05:43:52.270Z,1021.34
2019-03-30T05:44:52.250Z,1021.30
2019-03-30T05:45:52.349Z,1021.29
2019-03-30T05:46:52.231Z,1021.28
2019-03-30T05:47:52.224Z,1021.36
2019-03-30T05:48:52.216Z,1021.28
2019-03-30T05:49:52.198Z,1021.31
2019-03-30T05:50:52.202Z,1021.34
2019-03-30T05:51:52.207Z,1021.31
2019-03-30T05:52:52.172Z,1021.36
2019-03-30T05:53:52.156Z,1021.34
2019-03-30T05:54:52.142Z,1021.29
2019-03-30T05:55:52.146Z,1021.32
2019-03-30T05:56:52.123Z,1021.27
2019-03-30T05:57:52.144Z,1021.33
2019-03-30T05:58:52.102Z,1021.30
2019-03-30T05:59:52.092Z,1021.32
2019-03-30T06:00:52.098Z,1021.34
2019-03-30T06:01:52.068Z,1021.38
2019-03-30T06:02:52.056Z,1021.33
2019-03-30T06:03:52.050Z,1021.32
2019-03-30T06:04:52.068Z,1021.39
2019-03-30T06:05:52.043Z,1021.34
2019-03-30T06:06:52.012Z,1021.38
2019-03-30T06:07:52.004Z,1021.31
2019-03-30T06:08:51.994Z,1021.33
2019-03-30T06:09:51.986Z,1021.34
2019-03-30T06:10:52.041Z,1021.31
2019-03-30T06:11:51.965Z,1021.22
2019-03-30T06:12:51.954Z,1021.29
2019-03-30T06:13:51.944Z,1021.24
2019-03-30T06:14:51.934Z,1021.28
2019-03-30T06:15:51.920Z,1021.32
2019-03-30T06:16:51.932Z,1021.27
2019-03-30T06:17:51.923Z,1021.27
2019-03-30T06:18:51.887Z,1021.31
2019-03-30T06:19:51.874Z,1021.34
2019-03-30T06:20:51.865Z,1021.36
2019-03-30T06:21:51.877Z,1021.37
2019-03-30T06:22:51.840Z,1021.36
2019-03-30T06:23:51.874Z,1021.32
2019-03-30T06:24:51.825Z,1021.25
2019-03-30T06:25:51.811Z,1021.26
2019-03-30T06:26:51.815Z,1021.28
2019-03-30T06:27:51.800Z,1021.24
2019-03-30T06:28:51.782Z,1021.26
2019-03-30T06:29:51.773Z,1021.26
2019-03-30T06:30:51.778Z,1021.20
2019-03-30T06:31:51.777Z,1021.24
2019-03-30T06:32:51.731Z,1021.25
2019-03-30T06:33:51.729Z,1021.32
2019-03-30T06:34:51.739Z,1021.25
2019-03-30T06:35:51.702Z,1021.23
2019-03-30T06:36:51.709Z,1021.22
2019-03-30T06:37:51.733Z,1021.26
2019-03-30T06:38:51.670Z,1021.22
2019-03-30T06:39:51.658Z,1021.24
2019-03-30T06:40:51.645Z,1021.34
2019-03-30T06:41:51.733Z,1021.37
2019-03-30T06:42:51.638Z,1021.41
2019-03-30T06:43:51.665Z,1021.32
2019-03-30T06:44:51.611Z,1021.33
2019-03-30T06:45:51.601Z,1021.37
2019-03-30T06:46:51.595Z,1021.38
2019-03-30T06:47:51.575Z,1021.42
2019-03-30T06:48:51.562Z,1021.39
2019-03-30T06:49:51.549Z,1021.42
2019-03-30T06:50:51.543Z,1021.47
2019-03-30T06:51:51.583Z,1021.36
2019-03-30T06:52:57.901Z,1021.38
2019-03-30T06:53:52.509Z,1021.42
2019-03-30T06:54:51.494Z,1021.39
2019-03-30T06:55:51.483Z,1021.38
2019-03-30T06:56:51.491Z,1021.41
2019-03-30T06:57:51.469Z,1021.50
2019-03-30T06:58:51.456Z,1021.62
2019-03-30T06:59:51.480Z,1021.79
2019-03-30T07:00:51.431Z,1021.95
2019-03-30T07:01:51.437Z,1021.96
2019-03-30T07:02:51.412Z,1022.15
2019-03-30T07:03:51.394Z,1022.26
2019-03-30T07:04:51.393Z,1022.13
2019-03-30T07:05:51.394Z,1021.87
2019-03-30T07:06:51.376Z,1021.84
2019-03-30T07:07:51.362Z,1021.85
2019-03-30T07:08:51.346Z,1021.71
2019-03-30T07:09:51.330Z,1021.57
2019-03-30T07:10:51.332Z,1021.55
2019-03-30T07:11:51.368Z,1021.56
2019-03-30T07:12:51.300Z,1021.44
2019-03-30T07:13:51.288Z,1021.44
2019-03-30T07:14:51.276Z,1021.50
2019-03-30T07:15:51.264Z,1021.44
2019-03-30T07:16:51.273Z,1021.46
2019-03-30T07:17:51.264Z,1021.42
2019-03-30T07:18:51.248Z,1021.42
2019-03-30T07:19:51.240Z,1021.38
2019-03-30T07:20:51.214Z,1021.48
2019-03-30T07:21:51.221Z,1021.60
2019-03-30T07:22:51.396Z,1021.63
2019-03-30T07:23:51.180Z,1021.60
2019-03-30T07:24:51.166Z,1021.64
2019-03-30T07:25:51.168Z,1021.58
2019-03-30T07:26:51.189Z,1021.65
2019-03-30T07:27:51.156Z,1021.53
2019-03-30T07:28:51.138Z,1021.53
2019-03-30T07:29:51.155Z,1021.46
2019-03-30T07:30:51.101Z,1021.48
2019-03-30T07:31:51.110Z,1021.52
2019-03-30T07:32:51.132Z,1021.56
2019-03-30T07:33:51.071Z,1021.60
2019-03-30T07:34:51.059Z,1021.61
2019-03-30T07:35:51.056Z,1021.64
2019-03-30T07:36:51.056Z,1021.63
2019-03-30T07:37:51.053Z,1021.67
2019-03-30T07:38:51.022Z,1021.65
2019-03-30T07:39:51.005Z,1021.68
2019-03-30T07:40:50.993Z,1021.63
2019-03-30T07:41:51.008Z,1021.69
2019-03-30T07:42:51.020Z,1021.63
2019-03-30T07:43:50.986Z,1021.66
2019-03-30T07:44:50.956Z,1021.68
2019-03-30T07:45:50.944Z,1021.71
2019-03-30T07:46:50.930Z,1021.62
2019-03-30T07:47:50.940Z,1021.68
2019-03-30T07:48:50.911Z,1021.69
2019-03-30T07:49:50.958Z,1021.65
2019-03-30T07:50:50.899Z,1021.65
2019-03-30T07:51:50.877Z,1021.65
2019-03-30T07:52:50.882Z,1021.68
2019-03-30T07:53:50.857Z,1021.65
2019-03-30T07:54:50.866Z,1021.65
2019-03-30T07:55:50.854Z,1021.65
2019-03-30T07:57:03.890Z,1021.65
2019-03-30T07:57:51.862Z,1021.61
2019-03-30T07:58:50.803Z,1021.66
2019-03-30T07:59:50.795Z,1021.67
2019-03-30T08:00:50.782Z,1021.63
2019-03-30T08:01:50.777Z,1021.64
2019-03-30T08:02:50.792Z,1021.59
2019-03-30T08:03:50.748Z,1021.61
2019-03-30T08:04:50.745Z,1021.59
2019-03-30T08:05:54.168Z,1021.61
2019-03-30T08:06:50.717Z,1021.58
2019-03-30T08:07:50.722Z,1021.60
2019-03-30T08:08:50.710Z,1021.63
2019-03-30T08:09:50.683Z,1021.54
2019-03-30T08:10:50.675Z,1021.62
2019-03-30T08:11:50.661Z,1021.61
2019-03-30T08:12:50.685Z,1021.57
2019-03-30T08:13:50.641Z,1021.57
2019-03-30T08:14:50.635Z,1021.58
2019-03-30T08:15:50.633Z,1021.52
2019-03-30T08:16:50.609Z,1021.43
2019-03-30T08:17:50.593Z,1021.51
2019-03-30T08:18:50.607Z,1021.40
2019-03-30T08:19:50.609Z,1021.35
2019-03-30T08:20:50.569Z,1021.32
2019-03-30T08:21:50.571Z,1021.16
2019-03-30T08:22:50.541Z,1021.18
2019-03-30T08:23:50.561Z,1021.24
2019-03-30T08:24:50.524Z,1021.20
2019-03-30T08:25:50.513Z,1021.17
2019-03-30T08:26:50.503Z,1021.25
2019-03-30T08:27:50.490Z,1021.25
2019-03-30T08:28:50.495Z,1021.25
2019-03-30T08:29:50.482Z,1021.27
2019-03-30T08:30:50.457Z,1021.24
2019-03-30T08:31:50.444Z,1021.34
2019-03-30T08:32:50.438Z,1021.25
2019-03-30T08:33:50.451Z,1021.29
2019-03-30T08:34:50.486Z,1021.28
2019-03-30T08:35:50.403Z,1021.24
2019-03-30T08:36:50.394Z,1021.14
2019-03-30T08:37:50.376Z,1020.98
2019-03-30T08:38:50.371Z,1020.91
2019-03-30T08:39:50.370Z,1020.88
2019-03-30T08:40:50.346Z,1020.92
2019-03-30T08:41:50.339Z,1020.91
2019-03-30T08:42:50.336Z,1020.91
2019-03-30T08:43:50.378Z,1020.87
2019-03-30T08:44:50.326Z,1020.98
2019-03-30T08:45:50.294Z,1020.96
2019-03-30T08:46:50.303Z,1021.10
2019-03-30T08:47:50.269Z,1021.21
2019-03-30T08:48:50.266Z,1021.25
2019-03-30T08:49:50.313Z,1021.07
2019-03-30T08:50:50.294Z,1021.00
2019-03-30T08:51:50.236Z,1021.17
2019-03-30T08:52:50.227Z,1021.13
2019-03-30T08:53:54.818Z,1021.01
2019-03-30T08:54:50.219Z,1021.00
2019-03-30T08:55:50.222Z,1020.85
2019-03-30T08:56:50.191Z,1020.82
2019-03-30T08:57:50.188Z,1020.95
2019-03-30T08:58:50.154Z,1020.97
2019-03-30T08:59:50.164Z,1021.03
2019-03-30T09:00:50.146Z,1020.89
2019-03-30T09:01:50.126Z,1020.73
2019-03-30T09:02:50.114Z,1020.64
2019-03-30T09:03:50.109Z,1020.64
2019-03-30T09:04:50.109Z,1020.67
2019-03-30T09:05:50.115Z,1020.74
2019-03-30T09:06:50.064Z,1020.89
2019-03-30T09:07:50.062Z,1020.78
2019-03-30T09:08:50.059Z,1020.82
2019-03-30T09:09:50.056Z,1020.95
2019-03-30T09:10:50.048Z,1021.02
2019-03-30T09:11:50.017Z,1020.98
2019-03-30T09:12:50.005Z,1020.99
2019-03-30T09:13:49.998Z,1020.89
2019-03-30T09:14:50.019Z,1020.88
2019-03-30T09:15:50.039Z,1020.79
2019-03-30T09:16:49.961Z,1020.76
2019-03-30T09:17:49.953Z,1020.72
2019-03-30T09:18:49.976Z,1020.79
2019-03-30T09:19:49.949Z,1020.76
2019-03-30T09:20:49.933Z,1020.78
2019-03-30T09:21:49.913Z,1020.61
2019-03-30T09:22:49.897Z,1020.62
2019-03-30T09:23:49.893Z,1020.70
2019-03-30T09:24:49.887Z,1020.67
2019-03-30T09:25:49.893Z,1020.46
2019-03-30T09:26:49.865Z,1020.56
2019-03-30T09:27:49.843Z,1020.55
2019-03-30T09:28:49.849Z,1020.57
2019-03-30T09:29:49.830Z,1020.60
2019-03-30T09:30:49.821Z,1020.64
2019-03-30T09:31:49.801Z,1020.44
2019-03-30T09:32:49.785Z,1020.45
2019-03-30T09:33:49.785Z,1020.41
2019-03-30T09:34:49.772Z,1020.39
2019-03-30T09:35:49.791Z,1020.37
2019-03-30T09:36:49.869Z,1020.40
2019-03-30T09:37:49.752Z,1020.38
2019-03-30T09:38:49.731Z,1020.42
2019-03-30T09:39:49.719Z,1020.32
2019-03-30T09:40:49.734Z,1020.32
2019-03-30T09:41:49.697Z,1020.33
2019-03-30T09:42:49.727Z,1020.31
2019-03-30T09:43:49.671Z,1020.41
2019-03-30T09:44:49.697Z,1020.52
2019-03-30T09:45:49.671Z,1020.45
2019-03-30T09:46:49.645Z,1020.41
2019-03-30T09:47:49.649Z,1020.38
2019-03-30T09:48:49.622Z,1020.51
2019-03-30T09:49:49.607Z,1020.36
2019-03-30T09:50:49.595Z,1020.24
2019-03-30T09:51:49.602Z,1020.15
2019-03-30T09:52:49.584Z,1020.23
2019-03-30T09:53:49.567Z,1020.18
2019-03-30T09:54:49.561Z,1020.15
2019-03-30T09:55:49.563Z,1020.20
2019-03-30T09:56:49.562Z,1020.31
2019-03-30T09:57:49.517Z,1020.49
2019-03-30T09:58:49.527Z,1020.42
2019-03-30T09:59:49.510Z,1020.27
2019-03-30T10:00:49.490Z,1020.31
2019-03-30T10:01:49.589Z,1020.36
2019-03-30T10:02:49.464Z,1020.31
2019-03-30T10:03:49.465Z,1020.31
2019-03-30T10:04:49.446Z,1020.33
2019-03-30T10:05:49.438Z,1020.33
2019-03-30T10:06:49.447Z,1020.18
2019-03-30T10:07:49.422Z,1020.31
2019-03-30T10:08:49.400Z,1020.13
2019-03-30T10:09:49.392Z,1020.29
2019-03-30T10:10:49.408Z,1020.27
2019-03-30T10:11:49.382Z,1020.22
2019-03-30T10:12:49.356Z,1020.08
2019-03-30T10:13:49.349Z,1020.29
2019-03-30T10:14:49.340Z,1020.36
2019-03-30T10:15:49.350Z,1020.17
2019-03-30T10:16:49.336Z,1020.18
2019-03-30T10:17:49.308Z,1020.17
2019-03-30T10:18:49.293Z,1020.19
2019-03-30T10:20:03.518Z,1020.24
2019-03-30T10:20:50.278Z,1020.07
2019-03-30T10:21:49.349Z,1020.05
2019-03-30T10:22:49.263Z,1020.02
2019-03-30T10:23:49.236Z,1020.44
2019-03-30T10:24:49.234Z,1020.36
2019-03-30T10:25:49.223Z,1020.13
2019-03-30T10:26:49.257Z,1020.12
2019-03-30T10:27:49.212Z,1020.05
2019-03-30T10:28:49.188Z,1019.98
2019-03-30T10:29:49.194Z,1020.02
2019-03-30T10:30:49.160Z,1020.06
2019-03-30T10:31:49.176Z,1020.21
2019-03-30T10:32:49.137Z,1020.34
2019-03-30T10:33:49.135Z,1020.36
2019-03-30T10:34:49.129Z,1020.04
2019-03-30T10:35:49.130Z,1020.21
2019-03-30T10:36:49.124Z,1020.06
2019-03-30T10:37:49.108Z,1020.13
2019-03-30T10:38:49.082Z,1019.97
2019-03-30T10:39:49.076Z,1019.93
2019-03-30T10:40:49.060Z,1019.74
2019-03-30T10:41:49.059Z,1019.88
2019-03-30T10:42:49.030Z,1019.72
2019-03-30T10:43:49.021Z,1019.87
2019-03-30T10:44:49.009Z,1019.79
2019-03-30T10:45:49.016Z,1019.84
2019-03-30T10:46:49.006Z,1019.79
2019-03-30T10:47:48.989Z,1019.72
2019-03-30T10:48:48.969Z,1019.73
2019-03-30T10:49:48.960Z,1019.75
2019-03-30T10:50:48.967Z,1019.91
2019-03-30T10:51:48.935Z,1019.89
2019-03-30T10:52:48.923Z,1019.79
2019-03-30T10:53:48.919Z,1019.73
2019-03-30T10:54:53.053Z,1019.85
2019-03-30T10:55:48.932Z,1019.93
2019-03-30T10:56:48.877Z,1019.82
2019-03-30T10:57:48.875Z,1019.91
2019-03-30T10:58:48.867Z,1019.73
2019-03-30T10:59:48.859Z,1019.73
2019-03-30T11:00:48.883Z,1019.68
2019-03-30T11:01:48.836Z,1019.64
2019-03-30T11:02:48.816Z,1019.57
2019-03-30T11:03:48.815Z,1019.67
2019-03-30T11:04:48.804Z,1019.58
2019-03-30T11:05:48.822Z,1019.56
2019-03-30T11:06:48.795Z,1019.58
2019-03-30T11:07:48.764Z,1019.44
2019-03-30T11:08:48.759Z,1019.43
2019-03-30T11:09:49.623Z,1019.47
2019-03-30T11:10:48.734Z,1019.33
2019-03-30T11:11:48.758Z,1019.44
2019-03-30T11:12:48.718Z,1019.61
2019-03-30T11:13:48.718Z,1019.84
2019-03-30T11:14:48.705Z,1019.91
2019-03-30T11:15:48.684Z,1019.89
2019-03-30T11:16:48.710Z,1019.89
2019-03-30T11:17:48.657Z,1019.79
2019-03-30T11:18:48.652Z,1019.60
2019-03-30T11:19:48.636Z,1019.50
2019-03-30T11:20:48.628Z,1019.37
2019-03-30T11:21:48.634Z,1019.47
2019-03-30T11:22:48.606Z,1019.67
2019-03-30T11:23:48.596Z,1019.79
2019-03-30T11:24:48.596Z,1019.88
2019-03-30T11:25:48.579Z,1019.85
2019-03-30T11:26:48.580Z,1019.90
2019-03-30T11:27:48.550Z,1019.91
2019-03-30T11:28:48.539Z,1019.91
2019-03-30T11:29:48.530Z,1019.83
2019-03-30T11:30:48.548Z,1019.83
2019-03-30T11:31:48.568Z,1019.61
2019-03-30T11:32:48.498Z,1019.56
2019-03-30T11:33:48.489Z,1019.75
2019-03-30T11:34:48.482Z,1019.81
2019-03-30T11:35:48.484Z,1019.79
2019-03-30T11:36:48.471Z,1019.67
2019-03-30T11:37:48.453Z,1019.58
2019-03-30T11:38:48.435Z,1019.53
2019-03-30T11:39:48.422Z,1019.44
2019-03-30T11:40:48.421Z,1019.58
2019-03-30T11:41:48.438Z,1019.41
2019-03-30T11:42:48.401Z,1019.38
2019-03-30T11:43:48.394Z,1019.33
2019-03-30T11:44:48.379Z,1019.32
2019-03-30T11:45:48.372Z,1019.31
2019-03-30T11:46:48.371Z,1019.25
2019-03-30T11:47:48.345Z,1019.34
2019-03-30T11:48:48.331Z,1019.32
2019-03-30T11:49:48.330Z,1019.22
2019-03-30T11:50:48.316Z,1019.25
2019-03-30T11:51:48.319Z,1019.38
2019-03-30T11:52:48.293Z,1019.52
2019-03-30T11:53:48.289Z,1019.38
2019-03-30T11:54:48.289Z,1019.37
2019-03-30T11:55:48.267Z,1019.36
2019-03-30T11:56:48.263Z,1019.44
2019-03-30T11:57:48.247Z,1019.38
2019-03-30T11:58:48.227Z,1019.42
2019-03-30T11:59:48.229Z,1019.46
2019-03-30T12:00:48.213Z,1019.48
2019-03-30T12:01:48.209Z,1019.39
2019-03-30T12:02:48.196Z,1019.38
2019-03-30T12:03:48.189Z,1019.24
2019-03-30T12:04:48.172Z,1019.16
2019-03-30T12:05:48.168Z,1019.16